Página principal
METAR-TAF:

METAR-TAF

Aeroportos :

Tak, Tailândia

latitude: 16-53N, longitude: 099-09E, altura: 121 m

METAR: em falta

Hora: 12:27 (05:27 UTC)

Previsão

O boletim foi feito há 6 horas e 27 minutos, às 23:00 UTC
Previsão válida de 23 às 00 UTC a 23 às 24 UTC
Vento 2 kt com direcção variável
Visibilidade: 4000 m
neblina
Tornando-se
de 23 às 02 UTC a 23 às 04 UTC
Visibilidade: 6000 m

TAF: VTPT 222300Z 2300/2324 VRB02KT 4000 BR NSC BECMG 2302/2304 6000 NSW

Observações e previsões do tempo de mais de 4000 aeroportos (mensagens METAR e TAF).

As estações disponíveis são os pontos amarelos e vermelhos sobre o mapa.

Mova o rato sobre o mapa para ver o nome da estação.

Depois clique no ponto para visualizar as observações e previsões meteorológicas.

Para alterar o mapa : clique nos botões verdes com uma cruz preta para aumentar o zoom; no botão verde com uma pitada de zoom; ou nas setas verdes para mapas adjacentes.


METAR-TAF: